Time;durP1;ratioP1;P1;durP2;ratioP2;P2;SDS_P1;SDS_P2;PMS_P1;PMS_P2;Temp;Humidity;BMP_temperature;BMP_pressure;BME280_temperature;BME280_humidity;BME280_pressure;Samples;Min_cycle;Max_cycle;Signal;HPM_P1;HPM_P2
2022/08/24 00:00:57;;;;;;;5.07;2.95;;;21.10;99.90;;;;;;5055457;28;20189;-86
2022/08/24 00:03:23;;;;;;;6.55;2.97;;;;;;;;;;5055229;28;20275;-85
2022/08/24 00:05:49;;;;;;;6.30;2.67;;;21.00;99.90;;;;;;5072886;28;20214;-84
2022/08/24 00:08:15;;;;;;;5.22;2.67;;;21.00;99.90;;;;;;5073375;28;20657;-84
2022/08/24 00:10:41;;;;;;;11.27;2.72;;;20.90;99.90;;;;;;5072798;28;20245;-86
2022/08/24 00:13:08;;;;;;;5.70;2.72;;;20.90;99.90;;;;;;5073012;28;20183;-84
2022/08/24 00:15:33;;;;;;;11.70;3.58;;;20.90;99.90;;;;;;5073098;28;20229;-85
2022/08/24 00:17:59;;;;;;;4.50;2.70;;;20.80;99.90;;;;;;5072665;28;20183;-84
2022/08/24 00:20:25;;;;;;;12.75;3.35;;;20.80;99.90;;;;;;5073236;28;20535;-84
2022/08/24 00:22:51;;;;;;;12.20;4.15;;;20.80;99.90;;;;;;5054757;28;20636;-86
2022/08/24 00:25:18;;;;;;;5.05;3.15;;;20.70;99.90;;;;;;5038550;28;20186;-86
2022/08/24 00:27:45;;;;;;;9.27;2.75;;;20.70;99.90;;;;;;5072601;28;20175;-86
2022/08/24 00:30:14;;;;;;;10.50;2.95;;;20.70;99.90;;;;;;5072506;28;20664;-86
2022/08/24 00:32:40;;;;;;;9.32;2.53;;;;;;;;;;5054983;28;20544;-85
2022/08/24 00:35:07;;;;;;;6.18;3.85;;;20.70;99.90;;;;;;5072413;28;20168;-85
2022/08/24 00:37:33;;;;;;;7.75;3.17;;;;;;;;;;5054791;28;20631;-86
2022/08/24 00:39:59;;;;;;;11.52;2.42;;;;;;;;;;5072601;28;20176;-86
2022/08/24 00:42:24;;;;;;;7.60;4.03;;;20.60;99.90;;;;;;5072891;28;20183;-86
2022/08/24 00:44:50;;;;;;;7.85;3.90;;;20.60;99.90;;;;;;5054137;28;20223;-85
2022/08/24 00:47:23;;;;;;;7.57;3.13;;;20.60;99.90;;;;;;5054844;28;20233;-86
2022/08/24 00:50:05;;;;;;;4.80;2.45;;;20.50;99.90;;;;;;5072004;28;20156;-86
2022/08/24 00:52:39;;;;;;;2.75;2.22;;;20.50;99.90;;;;;;5073016;28;20160;-86
2022/08/24 00:55:17;;;;;;;4.35;2.78;;;20.50;99.90;;;;;;5072276;28;20164;-86
2022/08/24 00:57:48;;;;;;;11.50;3.47;;;20.50;99.90;;;;;;5054630;28;20183;-85
2022/08/24 01:00:22;;;;;;;5.80;3.05;;;20.50;99.90;;;;;;5072675;28;20164;-85
2022/08/24 01:02:57;;;;;;;7.20;2.28;;;20.50;99.90;;;;;;5057275;28;20284;-86
2022/08/24 01:05:23;;;;;;;8.82;3.17;;;20.40;99.90;;;;;;5076219;28;20241;-85
2022/08/24 01:07:49;;;;;;;6.68;3.17;;;20.50;99.90;;;;;;5075429;28;20261;-86
2022/08/24 01:10:27;;;;;;;2.90;2.13;;;20.50;99.90;;;;;;5075809;28;20229;-86
2022/08/24 01:12:57;;;;;;;4.35;3.33;;;20.50;99.90;;;;;;5075348;28;20167;-86
2022/08/24 01:15:22;;;;;;;11.00;4.90;;;20.50;99.90;;;;;;5075793;28;20639;-86
2022/08/24 01:20:33;;;;;;;10.52;3.20;;;20.40;99.90;;;;;;5075973;28;20186;-86
2022/08/24 01:23:27;;;;;;;5.63;2.88;;;20.50;99.90;;;;;;5075760;28;20214;-86
2022/08/24 01:25:53;;;;;;;3.95;2.47;;;20.50;99.90;;;;;;5056587;28;20183;-87
2022/08/24 01:28:20;;;;;;;8.27;3.08;;;20.40;99.90;;;;;;5058037;28;20179;-86
2022/08/24 01:30:46;;;;;;;13.43;3.55;;;20.40;99.90;;;;;;5075454;28;20210;-86
2022/08/24 01:33:23;;;;;;;9.73;4.55;;;20.40;99.90;;;;;;5075242;28;20182;-86
2022/08/24 01:35:49;;;;;;;6.32;2.90;;;;;;;;;;5075345;28;20163;-86
2022/08/24 01:38:16;;;;;;;7.53;3.38;;;20.40;99.90;;;;;;5075693;28;20171;-86
2022/08/24 01:40:46;;;;;;;5.30;2.63;;;20.40;99.90;;;;;;5075423;28;20175;-86
2022/08/24 01:43:13;;;;;;;6.70;3.25;;;20.40;99.90;;;;;;5074919;28;20227;-86
2022/08/24 01:45:40;;;;;;;10.35;3.85;;;20.40;99.90;;;;;;5075232;28;20182;-86
2022/08/24 01:48:05;;;;;;;6.63;3.92;;;20.40;99.90;;;;;;5074915;28;20198;-86
2022/08/24 01:50:32;;;;;;;13.40;4.28;;;;;;;;;;5057357;28;20553;-86
2022/08/24 01:53:01;;;;;;;4.18;2.83;;;20.40;99.90;;;;;;5075350;28;20179;-86
2022/08/24 01:55:27;;;;;;;8.88;2.90;;;20.30;99.90;;;;;;5075485;28;20172;-85
2022/08/24 01:57:53;;;;;;;2.83;2.13;;;;;;;;;;5057236;28;20179;-85
2022/08/24 02:00:19;;;;;;;3.35;2.13;;;;;;;;;;5075382;28;20297;-85
2022/08/24 02:02:45;;;;;;;7.43;3.17;;;;;;;;;;5057319;28;20623;-84
2022/08/24 02:05:13;;;;;;;4.22;3.38;;;20.40;99.90;;;;;;5074855;28;20172;-85
2022/08/24 02:07:39;;;;;;;7.45;3.13;;;20.00;99.90;;;;;;5057608;28;20274;-84
2022/08/24 02:10:07;;;;;;;13.93;3.30;;;20.80;99.90;;;;;;5074492;28;20233;-85
2022/08/24 02:12:35;;;;;;;8.65;4.28;;;20.30;99.90;;;;;;5074470;28;20270;-85
2022/08/24 02:15:01;;;;;;;3.22;2.05;;;;;;;;;;5075005;28;20168;-85
2022/08/24 02:17:27;;;;;;;3.92;2.58;;;;;;;;;;5057262;28;20183;-85
2022/08/24 02:19:53;;;;;;;8.90;3.72;;;;;;;;;;5075175;28;20678;-85
2022/08/24 02:22:19;;;;;;;4.20;3.03;;;;;;;;;;5074601;28;20183;-85
2022/08/24 02:24:45;;;;;;;11.63;3.13;;;20.20;99.90;;;;;;5076073;28;20232;-85
2022/08/24 02:27:12;;;;;;;5.22;2.63;;;20.20;99.90;;;;;;5078340;28;20176;-85
2022/08/24 02:29:37;;;;;;;5.55;3.20;;;20.30;99.90;;;;;;5081293;28;20183;-84
2022/08/24 02:32:04;;;;;;;3.47;2.25;;;20.10;99.90;;;;;;5084369;28;20203;-85
2022/08/24 02:34:30;;;;;;;2.65;2.42;;;20.00;99.90;;;;;;5087812;28;20213;-85
2022/08/24 02:36:56;;;;;;;4.60;2.88;;;;;;;;;;5070631;28;20175;-86
2022/08/24 02:39:22;;;;;;;4.07;2.92;;;20.10;99.90;;;;;;5088003;28;20182;-85
2022/08/24 02:41:48;;;;;;;7.22;2.67;;;20.00;99.90;;;;;;5086315;28;20179;-84
2022/08/24 02:44:14;;;;;;;17.00;3.05;;;19.90;99.90;;;;;;5087007;28;20260;-85
2022/08/24 02:46:41;;;;;;;21.85;4.10;;;20.00;99.90;;;;;;5086413;28;20187;-84
2022/08/24 02:49:07;;;;;;;8.63;3.42;;;20.00;99.90;;;;;;5069334;28;20221;-84
2022/08/24 02:51:33;;;;;;;6.45;3.58;;;20.00;99.90;;;;;;5076424;28;20218;-85
2022/08/24 02:54:00;;;;;;;7.50;3.15;;;20.00;99.90;;;;;;5073374;28;20179;-86
2022/08/24 02:56:28;;;;;;;4.80;3.67;;;;;;;;;;5074229;28;20174;-84
2022/08/24 02:58:55;;;;;;;4.10;2.45;;;19.90;99.90;;;;;;5073921;28;20167;-84
2022/08/24 03:01:21;;;;;;;5.47;2.92;;;19.80;99.90;;;;;;5073846;28;20184;-84
2022/08/24 03:03:46;;;;;;;6.57;3.25;;;20.20;99.90;;;;;;5074030;28;20186;-84
2022/08/24 03:06:12;;;;;;;4.65;3.33;;;;;;;;;;5055882;28;20182;-84
2022/08/24 03:08:38;;;;;;;5.07;2.90;;;;;;;;;;5073664;28;20168;-83
2022/08/24 03:11:07;;;;;;;7.03;3.63;;;19.90;99.90;;;;;;5073096;28;20206;-83
2022/08/24 03:13:34;;;;;;;11.30;3.70;;;19.90;99.90;;;;;;5073506;28;20187;-83
2022/08/24 03:16:00;;;;;;;4.13;2.58;;;19.70;99.90;;;;;;5073660;28;20180;-83
2022/08/24 03:18:26;;;;;;;4.45;2.92;;;19.90;99.90;;;;;;5055851;28;20213;-83
2022/08/24 03:20:53;;;;;;;2.92;2.10;;;19.90;99.90;;;;;;5073636;28;20179;-83
2022/08/24 03:23:19;;;;;;;7.25;3.22;;;;;;;;;;5073370;28;20167;-83
2022/08/24 03:25:45;;;;;;;3.83;2.35;;;;;;;;;;5073180;28;20186;-84
2022/08/24 03:28:11;;;;;;;8.35;2.90;;;;;;;;;;5072743;28;20175;-84
2022/08/24 03:30:39;;;;;;;5.65;3.97;;;19.90;99.90;;;;;;5055635;28;20683;-85
2022/08/24 03:33:05;;;;;;;6.85;3.13;;;;;;;;;;5073192;28;20194;-85
2022/08/24 03:35:32;;;;;;;4.57;2.63;;;19.70;99.90;;;;;;5055672;28;20175;-85
2022/08/24 03:37:58;;;;;;;6.60;2.85;;;;;;;;;;5073414;28;20639;-85
2022/08/24 03:40:24;;;;;;;5.05;2.97;;;19.90;99.90;;;;;;5072717;28;20262;-85
2022/08/24 03:42:51;;;;;;;3.33;2.42;;;19.90;99.90;;;;;;5073111;28;20194;-84
2022/08/24 03:45:16;;;;;;;5.07;3.40;;;19.70;99.90;;;;;;5054884;28;20537;-84
2022/08/24 03:47:43;;;;;;;9.52;2.47;;;;;;;;;;5073351;28;20175;-85
2022/08/24 03:50:10;;;;;;;5.07;2.80;;;19.50;99.90;;;;;;5072893;28;20329;-85
2022/08/24 03:52:36;;;;;;;6.18;3.03;;;;;;;;;;5082275;28;20194;-85
2022/08/24 03:55:04;;;;;;;9.05;3.85;;;19.90;99.90;;;;;;5078832;28;20195;-84
2022/08/24 03:57:30;;;;;;;7.95;3.30;;;19.80;99.90;;;;;;5092107;28;20171;-84
2022/08/24 03:59:56;;;;;;;7.82;3.47;;;20.00;99.90;;;;;;5080610;28;20245;-85
2022/08/24 04:02:22;;;;;;;5.57;2.88;;;19.90;99.90;;;;;;5072934;28;20606;-84
2022/08/24 04:04:47;;;;;;;9.68;3.63;;;20.20;99.90;;;;;;5065600;28;20575;-85
2022/08/24 04:07:13;;;;;;;5.32;2.95;;;20.40;99.90;;;;;;5063266;28;20308;-85
2022/08/24 04:09:39;;;;;;;9.25;2.80;;;19.90;99.90;;;;;;5047699;28;20178;-84
2022/08/24 04:12:05;;;;;;;4.68;3.28;;;20.10;99.90;;;;;;5078083;28;20256;-85
2022/08/24 04:14:31;;;;;;;11.82;2.55;;;20.10;99.90;;;;;;5079973;28;20639;-84
2022/08/24 04:16:56;;;;;;;9.93;2.67;;;20.40;99.90;;;;;;5074406;28;20578;-84
2022/08/24 04:19:22;;;;;;;5.43;3.17;;;;;;;;;;5070884;28;20183;-84
2022/08/24 04:21:48;;;;;;;6.40;2.53;;;;;;;;;;5068678;28;20195;-83
2022/08/24 04:24:14;;;;;;;9.05;3.80;;;;;;;;;;5050515;28;20192;-85
2022/08/24 04:26:41;;;;;;;4.25;2.08;;;;;;;;;;5052335;28;20205;-85
2022/08/24 04:29:08;;;;;;;11.55;2.90;;;20.20;99.90;;;;;;5071230;28;20179;-84
2022/08/24 04:31:35;;;;;;;4.97;2.45;;;20.30;99.90;;;;;;5072994;28;20251;-84
2022/08/24 04:34:01;;;;;;;5.45;2.83;;;;;;;;;;5052710;28;20551;-85
2022/08/24 04:36:28;;;;;;;14.70;4.45;;;;;;;;;;5068527;28;20232;-84
2022/08/24 04:38:54;;;;;;;6.72;3.30;;;;;;;;;;5065606;28;20182;-85
2022/08/24 04:41:20;;;;;;;5.35;2.92;;;;;;;;;;5068284;28;20187;-84
2022/08/24 04:43:47;;;;;;;7.43;2.85;;;20.40;99.90;;;;;;5053593;28;20223;-84
2022/08/24 04:46:14;;;;;;;3.60;2.42;;;20.50;99.90;;;;;;5064058;28;20183;-84
2022/08/24 04:48:42;;;;;;;6.65;3.58;;;20.60;99.90;;;;;;5070394;28;20188;-85
2022/08/24 04:51:10;;;;;;;8.75;2.83;;;20.50;99.90;;;;;;5070891;28;20321;-85
2022/08/24 04:53:36;;;;;;;5.80;3.30;;;20.70;99.90;;;;;;5071092;28;20715;-85
2022/08/24 04:56:03;;;;;;;10.25;3.97;;;20.60;99.90;;;;;;5060618;28;20667;-84
2022/08/24 04:58:29;;;;;;;5.00;2.83;;;20.80;99.90;;;;;;5074023;28;20348;-84
2022/08/24 05:00:55;;;;;;;13.45;3.47;;;21.20;99.90;;;;;;5074985;28;20687;-85
2022/08/24 05:03:21;;;;;;;10.20;4.13;;;20.90;99.90;;;;;;5056038;28;20213;-85
2022/08/24 05:05:50;;;;;;;11.65;4.22;;;20.80;99.90;;;;;;5073024;28;20229;-85
2022/08/24 05:08:18;;;;;;;9.52;3.63;;;21.10;99.90;;;;;;5056350;28;20171;-85
2022/08/24 05:10:46;;;;;;;7.90;3.95;;;20.80;99.90;;;;;;5074533;28;20679;-86
2022/08/24 05:13:12;;;;;;;9.63;2.92;;;;;;;;;;5061665;28;20270;-86
2022/08/24 05:15:43;;;;;;;13.68;3.97;;;21.20;99.90;;;;;;5054819;28;20180;-88
2022/08/24 05:18:09;;;;;;;12.50;4.63;;;21.20;99.90;;;;;;5053169;28;20206;-88
2022/08/24 05:20:38;;;;;;;6.60;2.92;;;21.30;99.90;;;;;;5074827;28;20969;-87
2022/08/24 05:23:03;;;;;;;9.95;3.83;;;21.30;99.90;;;;;;5081083;28;20191;-87
2022/08/24 05:25:29;;;;;;;7.15;3.00;;;21.30;99.90;;;;;;5089117;28;20538;-86
2022/08/24 05:27:55;;;;;;;9.45;2.90;;;21.30;99.90;;;;;;5061617;28;20191;-86
2022/08/24 05:30:20;;;;;;;11.77;3.80;;;21.50;99.90;;;;;;5056495;28;20205;-87
2022/08/24 05:32:46;;;;;;;8.85;3.78;;;21.40;99.90;;;;;;5074866;28;20538;-86
2022/08/24 05:35:12;;;;;;;13.25;4.15;;;21.50;99.90;;;;;;5075842;28;20175;-86
2022/08/24 05:37:39;;;;;;;10.57;4.45;;;21.50;99.90;;;;;;5074518;28;20179;-86
2022/08/24 05:40:09;;;;;;;7.72;3.53;;;21.70;99.90;;;;;;5074791;28;20171;-86
2022/08/24 05:46:09;;;;;;;5.80;3.83;;;22.20;99.90;;;;;;5283899;22;20665;-85
2022/08/24 05:48:36;;;;;;;10.63;3.85;;;21.60;99.90;;;;;;5057066;28;20187;-84
2022/08/24 05:51:02;;;;;;;8.85;4.25;;;;;;;;;;5081433;28;20203;-85
2022/08/24 05:53:28;;;;;;;13.13;3.40;;;21.90;99.90;;;;;;5080251;28;20175;-87
2022/08/24 05:55:54;;;;;;;8.32;3.10;;;;;;;;;;5058393;28;20175;-84
2022/08/24 05:58:20;;;;;;;9.82;3.22;;;;;;;;;;5061458;28;20216;-85
2022/08/24 06:00:46;;;;;;;8.13;3.90;;;;;;;;;;5078362;28;20183;-85
2022/08/24 06:03:13;;;;;;;9.40;3.33;;;22.20;99.90;;;;;;5078512;28;20210;-85
2022/08/24 06:05:43;;;;;;;9.00;3.50;;;22.60;99.90;;;;;;5074640;28;20202;-85
2022/08/24 06:08:10;;;;;;;10.05;3.35;;;22.30;99.90;;;;;;5057016;28;20213;-85
2022/08/24 06:10:44;;;;;;;15.02;3.33;;;22.80;99.90;;;;;;5074701;28;20199;-85
2022/08/24 06:13:10;;;;;;;8.68;4.22;;;;;;;;;;5076324;28;20194;-86
2022/08/24 06:15:38;;;;;;;6.35;3.72;;;22.40;99.90;;;;;;5056958;28;20262;-86
2022/08/24 06:18:04;;;;;;;5.90;3.45;;;22.50;99.90;;;;;;5046815;28;20187;-86
2022/08/24 06:20:31;;;;;;;4.63;3.00;;;22.50;99.90;;;;;;5058907;28;20199;-86
2022/08/24 06:22:57;;;;;;;9.73;3.60;;;;;;;;;;5067693;28;20208;-86
2022/08/24 06:28:07;;;;;;;11.80;3.92;;;;;;;;;;5052771;28;20274;-86
2022/08/24 06:30:33;;;;;;;10.23;4.15;;;;;;;;;;5052754;28;20204;-87
2022/08/24 06:33:01;;;;;;;9.13;3.30;;;22.90;99.90;;;;;;5028487;28;20200;-85
2022/08/24 06:35:27;;;;;;;6.90;4.28;;;;;;;;;;5044588;28;20179;-86
2022/08/24 06:37:53;;;;;;;19.63;3.17;;;;;;;;;;5038702;28;20179;-86
2022/08/24 06:40:19;;;;;;;6.93;2.72;;;23.00;99.90;;;;;;5047334;28;20274;-85
2022/08/24 06:42:45;;;;;;;8.02;3.17;;;23.30;99.90;;;;;;5071387;28;20262;-85
2022/08/24 06:45:12;;;;;;;5.63;2.60;;;;;;;;;;5037588;28;20219;-85
2022/08/24 06:47:38;;;;;;;9.55;3.92;;;;;;;;;;5072101;28;20594;-86
2022/08/24 06:50:05;;;;;;;4.95;2.35;;;23.50;99.90;;;;;;5072756;28;20172;-85
2022/08/24 06:52:31;;;;;;;12.15;4.05;;;;;;;;;;5057133;28;20584;-82
2022/08/24 06:54:58;;;;;;;7.13;2.83;;;;;;;;;;5073400;28;20238;-84
2022/08/24 06:57:24;;;;;;;10.48;3.25;;;;;;;;;;5073181;28;20179;-86
2022/08/24 06:59:50;;;;;;;15.65;4.35;;;;;;;;;;5055472;28;20186;-85
2022/08/24 07:02:18;;;;;;;5.40;3.28;;;;;;;;;;5074036;28;20548;-86
2022/08/24 07:04:44;;;;;;;10.60;3.70;;;23.90;99.90;;;;;;5076133;28;20175;-85
2022/08/24 07:07:10;;;;;;;6.35;2.92;;;;;;;;;;5072237;28;20258;-85
2022/08/24 07:09:37;;;;;;;10.38;3.75;;;;;;;;;;5052371;28;20183;-85
2022/08/24 07:12:03;;;;;;;8.43;2.65;;;24.10;99.90;;;;;;5036898;28;20208;-86
2022/08/24 07:14:29;;;;;;;7.10;2.65;;;;;;;;;;5037896;28;20180;-84
2022/08/24 07:16:55;;;;;;;7.22;2.92;;;24.20;99.90;;;;;;5039973;28;20186;-84
2022/08/24 07:19:21;;;;;;;8.40;3.42;;;;;;;;;;5038330;28;20595;-85
2022/08/24 07:21:47;;;;;;;7.95;2.55;;;;;;;;;;5056564;28;20187;-85
2022/08/24 07:24:13;;;;;;;10.73;3.28;;;;;;;;;;5053462;28;20541;-85
2022/08/24 07:26:41;;;;;;;6.70;3.67;;;24.60;99.90;;;;;;5052201;28;20176;-84
2022/08/24 07:29:14;;;;;;;7.40;3.17;;;25.10;99.90;;;;;;5035279;28;20643;-85
2022/08/24 07:31:40;;;;;;;5.68;2.92;;;24.80;99.90;;;;;;5053350;28;20208;-85
2022/08/24 07:34:08;;;;;;;8.93;3.05;;;24.90;99.90;;;;;;5054776;28;20180;-84
2022/08/24 07:36:35;;;;;;;6.25;4.13;;;25.00;99.90;;;;;;5080299;28;20183;-85
2022/08/24 07:39:01;;;;;;;7.05;2.70;;;;;;;;;;5079887;28;20178;-84
2022/08/24 07:41:28;;;;;;;5.15;3.00;;;;;;;;;;5078435;28;20222;-84
2022/08/24 07:43:55;;;;;;;9.50;3.78;;;25.80;99.90;;;;;;5074182;28;20167;-84
2022/08/24 07:46:21;;;;;;;8.60;3.65;;;25.40;99.90;;;;;;5057628;28;20688;-85
2022/08/24 07:48:47;;;;;;;16.25;4.10;;;25.80;99.90;;;;;;5054541;28;20188;-84
2022/08/24 07:51:15;;;;;;;5.30;2.00;;;25.60;99.90;;;;;;5055471;28;20206;-84
2022/08/24 07:53:41;;;;;;;7.80;2.47;;;;;;;;;;5070797;28;20236;-85
2022/08/24 07:56:08;;;;;;;6.75;2.65;;;25.80;99.90;;;;;;5072410;28;20194;-84
2022/08/24 07:58:34;;;;;;;11.60;3.30;;;;;;;;;;5068740;28;20645;-84
2022/08/24 08:01:00;;;;;;;3.60;1.95;;;26.30;99.90;;;;;;5054878;28;20183;-85
2022/08/24 08:03:28;;;;;;;7.95;3.70;;;;;;;;;;5035326;28;20655;-85
2022/08/24 08:05:58;;;;;;;11.50;3.88;;;26.10;99.90;;;;;;5052533;28;20253;-85
2022/08/24 08:08:25;;;;;;;7.90;2.92;;;26.20;99.90;;;;;;5058195;28;20204;-85
2022/08/24 08:10:51;;;;;;;13.45;3.95;;;;;;;;;;5053477;28;20731;-84
2022/08/24 08:13:17;;;;;;;5.80;2.90;;;;;;;;;;5042037;28;20267;-84
2022/08/24 08:15:43;;;;;;;14.65;4.53;;;26.00;99.90;;;;;;5071481;28;20254;-84
2022/08/24 08:18:09;;;;;;;5.88;3.03;;;26.60;99.90;;;;;;5053530;28;20262;-84
2022/08/24 08:20:37;;;;;;;3.38;1.90;;;26.60;99.90;;;;;;5070497;28;20188;-84
2022/08/24 08:25:53;;;;;;;9.95;3.38;;;26.80;99.90;;;;;;5056206;28;20589;-85
2022/08/24 08:28:20;;;;;;;8.85;1.95;;;27.30;99.90;;;;;;5057638;28;20168;-84
2022/08/24 08:30:46;;;;;;;6.82;2.92;;;;;;;;;;5056454;28;20207;-85
2022/08/24 08:33:12;;;;;;;5.65;3.00;;;;;;;;;;5056661;28;20679;-85
2022/08/24 08:35:39;;;;;;;7.25;2.30;;;;;;;;;;5039080;28;20176;-85
2022/08/24 08:38:06;;;;;;;4.88;1.98;;;27.00;99.90;;;;;;5056541;28;20183;-85
2022/08/24 08:40:37;;;;;;;7.53;2.55;;;27.20;99.90;;;;;;5056661;28;20289;-84
2022/08/24 08:43:28;;;;;;;14.50;2.83;;;27.20;99.90;;;;;;5038499;28;20190;-84
2022/08/24 08:46:11;;;;;;;9.55;2.85;;;28.00;99.90;;;;;;5061391;28;20306;-85
2022/08/24 08:48:38;;;;;;;13.00;2.75;;;;;;;;;;5072456;28;20217;-85
2022/08/24 08:51:12;;;;;;;7.55;3.13;;;27.40;99.90;;;;;;5076370;28;20239;-85
2022/08/24 08:53:49;;;;;;;5.53;2.60;;;27.50;99.90;;;;;;5076471;28;20217;-85
2022/08/24 08:56:15;;;;;;;5.13;2.58;;;27.30;99.90;;;;;;5075639;28;20171;-86
2022/08/24 08:59:10;;;;;;;8.90;2.63;;;27.00;99.90;;;;;;5075500;28;20499;-86
2022/08/24 09:02:00;;;;;;;6.03;2.90;;;27.40;99.90;;;;;;5076514;28;20194;-85
2022/08/24 09:04:50;;;;;;;5.25;2.45;;;27.80;99.90;;;;;;5058739;28;20194;-85
2022/08/24 09:07:37;;;;;;;6.93;2.47;;;27.80;99.90;;;;;;5075176;28;20196;-85
2022/08/24 09:10:08;;;;;;;4.97;2.45;;;27.70;99.90;;;;;;5072067;28;20176;-85
2022/08/24 09:13:02;;;;;;;5.05;2.67;;;27.60;99.90;;;;;;5063200;28;20186;-85
2022/08/24 09:15:54;;;;;;;10.07;3.08;;;28.90;99.90;;;;;;5061179;28;20216;-86
2022/08/24 09:18:53;;;;;;;8.50;2.92;;;28.30;99.90;;;;;;5048949;28;20191;-86
2022/08/24 09:21:40;;;;;;;6.30;2.45;;;28.90;99.90;;;;;;5067767;28;20172;-84
2022/08/24 09:24:34;;;;;;;8.18;3.80;;;28.70;99.90;;;;;;5068450;28;20210;-85
2022/08/24 09:27:21;;;;;;;15.00;4.13;;;28.20;99.90;;;;;;5063579;28;20258;-86
2022/08/24 09:30:05;;;;;;;4.05;2.45;;;28.50;99.90;;;;;;5073157;28;20581;-85
2022/08/24 09:33:03;;;;;;;7.93;3.40;;;28.50;99.90;;;;;;5056903;28;20275;-85
2022/08/24 09:35:50;;;;;;;9.07;3.33;;;28.40;99.90;;;;;;5050960;28;20188;-87
2022/08/24 09:38:45;;;;;;;8.63;3.03;;;28.40;99.90;;;;;;5071238;28;20168;-85
2022/08/24 09:41:54;;;;;;;9.02;2.60;;;28.30;99.90;;;;;;5055256;28;20184;-86
2022/08/24 09:44:20;;;;;;;8.85;2.53;;;;;;;;;;5054907;28;20172;-84
2022/08/24 09:46:57;;;;;;;7.35;2.72;;;29.70;99.90;;;;;;5057999;28;20258;-82
2022/08/24 09:49:49;;;;;;;10.02;3.13;;;29.70;99.90;;;;;;5075374;28;20167;-83
2022/08/24 09:52:44;;;;;;;7.07;2.13;;;29.90;99.90;;;;;;5075284;28;20237;-84
2022/08/24 09:55:38;;;;;;;7.22;2.08;;;29.50;99.90;;;;;;5076719;28;20198;-84
2022/08/24 09:58:19;;;;;;;10.63;2.80;;;29.40;99.90;;;;;;5081287;28;20187;-86
2022/08/24 10:01:10;;;;;;;8.50;2.38;;;29.60;99.90;;;;;;5090221;28;20194;-87
2022/08/24 10:03:45;;;;;;;5.05;2.75;;;29.80;99.90;;;;;;5038575;28;20234;-85
2022/08/24 10:06:24;;;;;;;6.25;2.92;;;29.90;99.90;;;;;;5076258;28;20156;-86
2022/08/24 10:08:58;;;;;;;5.28;2.33;;;30.00;99.90;;;;;;5075665;28;20188;-85
2022/08/24 10:11:33;;;;;;;8.10;3.05;;;30.60;99.90;;;;;;5061220;28;20214;-85
2022/08/24 10:14:25;;;;;;;3.97;1.80;;;30.30;99.90;;;;;;5059239;28;20182;-85
2022/08/24 10:17:12;;;;;;;2.92;1.98;;;30.60;99.90;;;;;;5060296;28;20258;-84
2022/08/24 10:20:07;;;;;;;5.22;2.58;;;30.40;99.90;;;;;;5058239;28;20218;-86
2022/08/24 10:22:57;;;;;;;11.65;3.75;;;30.90;99.90;;;;;;5012832;28;20219;-82
2022/08/24 10:25:23;;;;;;;9.77;3.10;;;;;;;;;;5086374;28;20697;-85
2022/08/24 10:28:13;;;;;;;4.57;2.83;;;30.50;99.90;;;;;;5056967;28;20278;-83
2022/08/24 10:30:59;;;;;;;8.57;2.88;;;31.30;99.90;;;;;;5074916;28;20229;-84
2022/08/24 10:33:50;;;;;;;7.10;2.92;;;30.30;99.90;;;;;;5073959;28;20179;-85
2022/08/24 10:36:53;;;;;;;8.18;2.28;;;30.50;99.90;;;;;;5073229;28;20178;-83
2022/08/24 10:39:41;;;;;;;6.57;2.80;;;31.10;99.90;;;;;;5052962;28;20179;-86
2022/08/24 10:42:07;;;;;;;5.13;1.88;;;;;;;;;;5053809;28;20206;-87
2022/08/24 10:44:52;;;;;;;6.13;2.67;;;30.90;99.90;;;;;;5053619;28;20533;-84
2022/08/24 10:47:27;;;;;;;8.20;2.60;;;31.30;99.90;;;;;;5053125;28;20676;-85
2022/08/24 10:50:36;;;;;;;5.72;2.22;;;30.60;99.90;;;;;;5054183;28;20167;-85
2022/08/24 10:53:20;;;;;;;9.57;3.33;;;30.90;99.90;;;;;;5007057;28;20206;-84
2022/08/24 10:55:50;;;;;;;5.55;2.75;;;30.70;99.90;;;;;;5035591;28;20238;-84
2022/08/24 10:58:42;;;;;;;9.00;3.40;;;30.80;99.90;;;;;;5053113;28;20725;-86
2022/08/24 11:01:21;;;;;;;4.68;2.67;;;31.00;99.90;;;;;;5053554;28;20179;-87
2022/08/24 11:03:54;;;;;;;6.07;2.50;;;31.00;99.90;;;;;;5054263;28;20175;-85
2022/08/24 11:06:30;;;;;;;10.68;3.58;;;31.20;99.90;;;;;;5053687;28;20542;-85
2022/08/24 11:09:08;;;;;;;4.57;1.65;;;31.20;99.90;;;;;;5052250;28;20164;-86
2022/08/24 11:11:44;;;;;;;7.18;2.95;;;31.90;99.90;;;;;;5052781;28;20249;-85
2022/08/24 11:14:15;;;;;;;5.03;2.38;;;31.30;99.90;;;;;;5052911;28;20690;-85
2022/08/24 11:16:44;;;;;;;9.35;1.92;;;31.50;99.90;;;;;;5062930;28;20194;-84
2022/08/24 11:19:25;;;;;;;4.95;2.88;;;31.40;99.90;;;;;;5073864;28;20201;-83
2022/08/24 11:21:54;;;;;;;5.22;2.58;;;31.50;99.90;;;;;;5054646;28;20175;-84
2022/08/24 11:24:25;;;;;;;9.48;2.58;;;31.30;99.90;;;;;;5066642;28;20190;-85
2022/08/24 11:27:17;;;;;;;9.68;3.13;;;31.40;99.90;;;;;;5059301;28;20156;-85
2022/08/24 11:29:49;;;;;;;11.55;2.22;;;31.30;99.90;;;;;;5043581;28;20197;-84
2022/08/24 11:32:43;;;;;;;10.25;2.80;;;31.50;99.90;;;;;;5067874;28;20684;-84
2022/08/24 11:35:19;;;;;;;6.93;2.10;;;31.70;99.90;;;;;;5063828;28;20168;-83
2022/08/24 11:37:46;;;;;;;12.68;3.25;;;31.70;99.90;;;;;;5055768;28;20164;-83
2022/08/24 11:40:13;;;;;;;6.47;1.90;;;31.70;99.90;;;;;;5060248;28;20183;-83
2022/08/24 11:42:50;;;;;;;3.22;1.73;;;31.70;99.90;;;;;;5049513;28;20179;-83
2022/08/24 11:45:41;;;;;;;12.57;3.53;;;31.70;99.90;;;;;;5055625;28;20690;-83
2022/08/24 11:48:18;;;;;;;10.15;2.42;;;31.60;99.20;;;;;;5065420;28;20534;-84
2022/08/24 11:50:54;;;;;;;12.88;3.25;;;31.70;99.90;;;;;;5067812;28;20230;-82
2022/08/24 11:53:23;;;;;;;11.10;3.58;;;31.70;99.90;;;;;;5062643;28;20695;-83
2022/08/24 11:56:01;;;;;;;10.55;3.22;;;31.80;99.90;;;;;;5064687;28;20184;-83
2022/08/24 11:58:44;;;;;;;9.43;2.60;;;31.70;96.50;;;;;;5064008;28;20232;-81
2022/08/24 12:01:25;;;;;;;8.23;2.65;;;31.70;97.20;;;;;;5085769;28;20197;-83
2022/08/24 12:04:21;;;;;;;9.15;2.78;;;31.80;96.60;;;;;;5063689;28;20627;-84
2022/08/24 12:07:13;;;;;;;8.98;2.75;;;31.70;96.60;;;;;;5068788;28;20188;-82
2022/08/24 12:09:46;;;;;;;8.63;2.72;;;31.70;98.60;;;;;;5069592;28;20755;-84
2022/08/24 12:12:30;;;;;;;5.47;2.80;;;31.70;97.30;;;;;;5061225;28;20715;-82
2022/08/24 12:15:08;;;;;;;6.10;2.45;;;31.70;98.30;;;;;;5059265;28;20164;-83
2022/08/24 12:17:40;;;;;;;6.43;2.72;;;31.70;95.90;;;;;;5057045;28;20640;-83
2022/08/24 12:20:32;;;;;;;11.63;3.00;;;31.60;95.10;;;;;;5052992;28;20254;-84
2022/08/24 12:23:04;;;;;;;8.60;2.67;;;31.80;94.50;;;;;;5072170;28;20168;-84
2022/08/24 12:28:45;;;;;;;9.35;2.72;;;32.00;95.00;;;;;;5050349;28;20265;-83
2022/08/24 12:31:20;;;;;;;7.78;2.95;;;32.10;94.40;;;;;;5061063;28;20692;-83
2022/08/24 12:33:53;;;;;;;15.35;3.40;;;32.20;93.70;;;;;;5058059;28;20311;-82
2022/08/24 12:36:45;;;;;;;12.75;2.30;;;32.20;92.70;;;;;;5060104;28;20172;-84
2022/08/24 12:39:16;;;;;;;8.57;3.55;;;32.20;91.00;;;;;;5062657;28;20172;-84
2022/08/24 12:42:01;;;;;;;16.85;3.45;;;32.60;96.20;;;;;;5060694;28;20179;-85
2022/08/24 12:44:42;;;;;;;10.60;3.35;;;32.30;90.50;;;;;;5059871;28;20269;-85
2022/08/24 12:47:08;;;;;;;8.38;3.08;;;32.40;91.30;;;;;;5070066;28;20179;-84
2022/08/24 12:49:50;;;;;;;10.35;3.35;;;32.50;90.00;;;;;;5065592;28;20270;-83
2022/08/24 12:52:38;;;;;;;7.53;2.25;;;32.50;88.70;;;;;;5067852;28;20215;-86
2022/08/24 12:55:22;;;;;;;16.60;3.10;;;32.20;93.70;;;;;;5043497;28;20262;-84
2022/08/24 12:58:06;;;;;;;10.88;2.28;;;32.40;87.50;;;;;;5062506;28;20164;-85
2022/08/24 13:00:45;;;;;;;8.68;3.65;;;32.50;88.40;;;;;;5071068;28;20167;-84
2022/08/24 13:03:45;;;;;;;12.52;2.60;;;32.50;85.80;;;;;;5074267;28;20171;-85
2022/08/24 13:06:26;;;;;;;9.95;2.45;;;32.60;88.10;;;;;;5032283;28;20261;-84
2022/08/24 13:09:02;;;;;;;17.23;2.88;;;32.60;83.90;;;;;;5073054;28;20164;-83
2022/08/24 13:11:32;;;;;;;8.23;2.40;;;32.60;82.30;;;;;;5047521;28;20207;-85
2022/08/24 13:13:57;;;;;;;18.98;3.05;;;32.50;82.90;;;;;;5067644;28;20171;-85
2022/08/24 13:17:06;;;;;;;8.25;3.40;;;32.60;82.70;;;;;;5072128;28;20527;-84
2022/08/24 13:19:37;;;;;;;8.88;2.25;;;32.70;84.00;;;;;;5068747;28;20175;-84
2022/08/24 13:22:09;;;;;;;8.93;3.00;;;32.80;84.20;;;;;;5051852;28;20262;-86
2022/08/24 13:24:36;;;;;;;6.95;1.95;;;;;;;;;;5057851;28;20664;-83
2022/08/24 13:27:11;;;;;;;6.65;3.70;;;32.60;83.50;;;;;;5045166;28;20183;-85
2022/08/24 13:29:48;;;;;;;19.10;4.03;;;32.70;83.10;;;;;;5069785;28;20184;-84
2022/08/24 13:32:29;;;;;;;9.13;2.53;;;32.50;82.70;;;;;;5065552;28;20206;-85
2022/08/24 13:34:56;;;;;;;6.22;3.00;;;32.50;83.80;;;;;;5067858;28;20171;-84
2022/08/24 13:37:24;;;;;;;7.68;1.95;;;32.50;82.50;;;;;;5065352;28;20167;-85
2022/08/24 13:40:07;;;;;;;8.95;2.85;;;32.60;84.20;;;;;;5064983;28;20210;-84
2022/08/24 13:42:58;;;;;;;15.27;4.38;;;32.60;83.50;;;;;;5066941;28;20168;-83
2022/08/24 13:45:41;;;;;;;11.30;2.53;;;32.50;84.10;;;;;;5066953;28;20228;-83
2022/08/24 13:48:07;;;;;;;7.13;2.30;;;32.60;84.80;;;;;;5067162;28;20164;-84